Time;durP1;ratioP1;P1;durP2;ratioP2;P2;SDS_P1;SDS_P2;PMS_P1;PMS_P2;Temp;Humidity;BMP_temperature;BMP_pressure;BME280_temperature;BME280_humidity;BME280_pressure;Samples;Min_cycle;Max_cycle;Signal;HPM_P1;HPM_P2
2023/03/10 00:01:39;;;;;;;29.05;17.80;;;0.40;99.90;;;;;;5063596;28;20068;-64
2023/03/10 00:04:05;;;;;;;27.42;18.17;;;0.80;99.90;;;;;;5064122;28;20052;-65
2023/03/10 00:06:33;;;;;;;27.75;17.92;;;2.20;99.90;;;;;;5063153;28;20040;-65
2023/03/10 00:08:59;;;;;;;26.95;18.55;;;1.00;99.90;;;;;;5064222;28;20049;-65
2023/03/10 00:11:25;;;;;;;29.00;18.65;;;1.10;99.90;;;;;;5064081;28;20048;-64
2023/03/10 00:13:51;;;;;;;27.30;18.23;;;1.00;99.90;;;;;;5064383;28;20037;-64
2023/03/10 00:16:21;;;;;;;28.13;19.88;;;1.20;99.90;;;;;;5064167;28;20116;-65
2023/03/10 00:18:47;;;;;;;28.92;18.80;;;0.60;99.90;;;;;;5045841;28;20041;-65
2023/03/10 00:21:15;;;;;;;27.58;18.38;;;0.90;99.90;;;;;;5045406;28;20174;-65
2023/03/10 00:23:41;;;;;;;26.10;17.83;;;1.00;99.90;;;;;;5046141;28;20060;-64
2023/03/10 00:26:06;;;;;;;27.85;18.33;;;0.60;99.90;;;;;;5063209;28;20045;-65
2023/03/10 00:28:32;;;;;;;30.45;20.25;;;0.70;99.90;;;;;;5064089;28;20503;-64
2023/03/10 00:31:07;;;;;;;25.52;16.45;;;0.20;99.90;;;;;;5063262;28;20044;-64
2023/03/10 00:33:33;;;;;;;31.50;21.15;;;0.10;99.90;;;;;;5063536;28;20044;-65
2023/03/10 00:36:08;;;;;;;32.80;21.55;;;0.10;99.90;;;;;;5062598;28;20422;-65
2023/03/10 00:38:35;;;;;;;;;;;1.20;99.90;;;;;;5064355;28;20457;-64
2023/03/10 00:41:06;;;;;;;32.55;21.00;;;0.80;99.90;;;;;;5063420;28;20287;-65
2023/03/10 00:43:33;;;;;;;33.90;23.10;;;0.30;99.90;;;;;;5063701;28;20040;-65
2023/03/10 00:45:59;;;;;;;30.98;21.27;;;1.40;99.90;;;;;;5038713;28;20098;-65
2023/03/10 00:48:25;;;;;;;32.67;22.05;;;0.60;99.90;;;;;;5046327;28;20051;-64
2023/03/10 00:50:51;;;;;;;27.30;17.42;;;0.20;99.90;;;;;;5028427;28;20668;-65
2023/03/10 00:53:17;;;;;;;30.65;20.80;;;1.50;99.90;;;;;;5047112;28;20079;-63
2023/03/10 00:55:43;;;;;;;31.70;21.48;;;0.30;99.90;;;;;;5047739;28;20041;-65
2023/03/10 00:58:09;;;;;;;28.70;19.77;;;0.50;99.90;;;;;;5046219;28;20040;-65
2023/03/10 01:00:35;;;;;;;28.27;21.10;;;0.90;99.90;;;;;;5046729;28;20040;-65
2023/03/10 01:03:01;;;;;;;29.63;20.35;;;0.60;99.90;;;;;;5047085;28;20043;-64
2023/03/10 01:05:27;;;;;;;27.02;19.02;;;0.30;99.90;;;;;;5028233;28;20049;-65
2023/03/10 01:07:53;;;;;;;26.52;17.80;;;0.70;99.90;;;;;;5047076;28;20037;-65
2023/03/10 01:10:20;;;;;;;27.38;19.00;;;1.20;99.90;;;;;;5046584;28;20121;-64
2023/03/10 01:12:45;;;;;;;27.80;19.00;;;1.50;99.90;;;;;;5047335;28;20053;-63
2023/03/10 01:15:12;;;;;;;23.45;16.20;;;1.30;99.90;;;;;;5046126;28;20515;-64
2023/03/10 01:17:37;;;;;;;26.17;17.80;;;0.60;99.90;;;;;;5046610;28;20036;-65
2023/03/10 01:20:08;;;;;;;27.67;20.35;;;1.20;99.90;;;;;;5065732;28;20036;-64
2023/03/10 01:22:35;;;;;;;28.05;20.15;;;0.30;99.90;;;;;;5065924;28;20776;-64
2023/03/10 01:25:00;;;;;;;27.45;19.63;;;1.10;99.90;;;;;;5067162;28;20439;-65
2023/03/10 01:27:26;;;;;;;27.92;20.02;;;0.20;99.90;;;;;;5066583;28;20094;-65
2023/03/10 01:29:52;;;;;;;26.48;19.20;;;0.80;99.90;;;;;;5066068;28;20083;-65
2023/03/10 01:32:17;;;;;;;26.15;18.63;;;1.20;99.90;;;;;;5048787;28;20491;-64
2023/03/10 01:34:43;;;;;;;26.63;18.38;;;2.20;99.90;;;;;;5065620;28;20041;-66
2023/03/10 01:37:08;;;;;;;22.85;15.48;;;0.20;99.90;;;;;;5066510;28;20102;-65
2023/03/10 01:39:34;;;;;;;26.17;18.55;;;1.30;99.90;;;;;;5065717;28;20052;-65
2023/03/10 01:42:00;;;;;;;23.38;16.20;;;1.00;99.90;;;;;;5048435;28;20036;-65
2023/03/10 01:44:25;;;;;;;25.70;18.65;;;0.20;99.90;;;;;;5064036;28;20475;-64
2023/03/10 01:46:53;;;;;;;24.17;17.75;;;0.60;99.90;;;;;;5055368;28;20133;-64
2023/03/10 01:49:37;;;;;;;23.75;17.65;;;0.30;99.90;;;;;;5045813;28;20073;-64
2023/03/10 01:52:04;;;;;;;23.92;16.58;;;0.30;99.90;;;;;;5046205;28;20047;-65
2023/03/10 01:54:50;;;;;;;21.10;13.77;;;0.30;99.90;;;;;;5045811;28;20037;-65
2023/03/10 01:57:20;;;;;;;21.50;15.10;;;1.40;99.90;;;;;;5046496;28;20049;-66
2023/03/10 01:59:46;;;;;;;20.15;13.70;;;1.50;99.90;;;;;;5044601;28;20041;-65
2023/03/10 02:02:12;;;;;;;18.92;12.80;;;0.40;99.90;;;;;;5045751;28;20072;-65
2023/03/10 02:04:49;;;;;;;19.95;14.48;;;1.30;99.90;;;;;;5045176;28;20091;-63
2023/03/10 02:07:20;;;;;;;19.08;12.77;;;0.80;99.90;;;;;;5045002;28;20041;-66
2023/03/10 02:09:47;;;;;;;20.63;14.82;;;0.20;99.90;;;;;;5046045;28;20055;-65
2023/03/10 02:12:14;;;;;;;19.52;12.98;;;1.40;99.90;;;;;;5045731;28;20284;-65
2023/03/10 02:14:42;;;;;;;19.98;13.93;;;2.00;99.90;;;;;;5043745;28;20053;-64
2023/03/10 02:17:12;;;;;;;20.45;13.48;;;0.40;99.90;;;;;;5045662;28;20048;-64
2023/03/10 02:19:47;;;;;;;21.88;15.30;;;0.20;99.90;;;;;;5044571;28;20044;-64
2023/03/10 02:22:14;;;;;;;19.33;13.43;;;0.20;99.90;;;;;;5045183;28;20057;-64
2023/03/10 02:24:57;;;;;;;19.45;13.52;;;1.30;99.90;;;;;;5045422;28;20049;-64
2023/03/10 02:27:32;;;;;;;19.38;13.63;;;0.50;99.90;;;;;;5044926;28;20048;-64
2023/03/10 02:30:20;;;;;;;20.85;14.48;;;0.60;99.90;;;;;;5043974;28;20049;-65
2023/03/10 02:32:54;;;;;;;21.15;15.10;;;1.00;99.90;;;;;;5044885;28;20044;-65
2023/03/10 02:35:20;;;;;;;21.13;14.20;;;2.10;99.90;;;;;;5045091;28;20033;-64
2023/03/10 02:37:45;;;;;;;20.70;13.70;;;0.50;99.90;;;;;;5045744;28;20114;-65
2023/03/10 02:40:33;;;;;;;21.05;14.05;;;0.30;99.90;;;;;;5045413;28;20041;-65
2023/03/10 02:43:22;;;;;;;20.05;13.88;;;0.20;99.90;;;;;;5045680;28;20404;-65
2023/03/10 02:45:49;;;;;;;20.98;14.98;;;1.30;99.90;;;;;;5050676;28;20063;-65
2023/03/10 02:48:27;;;;;;;20.45;13.73;;;0.30;99.90;;;;;;5062714;28;20122;-65
2023/03/10 02:50:54;;;;;;;21.27;14.77;;;1.30;99.90;;;;;;5064014;28;20045;-64
2023/03/10 02:53:22;;;;;;;21.90;14.55;;;1.30;99.90;;;;;;5065591;28;20124;-64
2023/03/10 02:55:48;;;;;;;21.48;14.98;;;0.80;99.90;;;;;;5065184;28;20044;-64
2023/03/10 02:58:14;;;;;;;20.75;14.35;;;0.80;99.90;;;;;;5046578;28;20045;-65
2023/03/10 03:00:42;;;;;;;19.55;13.80;;;1.40;99.90;;;;;;5064955;28;20052;-65
2023/03/10 03:03:09;;;;;;;22.40;15.80;;;1.70;99.90;;;;;;5047000;28;20087;-65
2023/03/10 03:05:35;;;;;;;19.17;13.27;;;0.70;99.90;;;;;;5063367;28;20044;-64
2023/03/10 03:08:01;;;;;;;19.50;13.82;;;1.40;99.90;;;;;;5065043;28;20688;-65
2023/03/10 03:10:27;;;;;;;22.30;14.98;;;0.40;99.90;;;;;;5064410;28;20062;-63
2023/03/10 03:12:55;;;;;;;21.70;14.65;;;0.40;99.90;;;;;;5064458;28;20055;-65
2023/03/10 03:15:21;;;;;;;25.02;16.50;;;1.30;99.90;;;;;;5065136;28;20115;-65
2023/03/10 03:17:47;;;;;;;20.77;14.50;;;1.50;99.90;;;;;;5064404;28;20510;-63
2023/03/10 03:20:13;;;;;;;22.73;15.18;;;0.40;99.90;;;;;;5062829;28;20064;-65
2023/03/10 03:22:44;;;;;;;22.38;15.02;;;1.40;99.90;;;;;;5063368;28;20067;-63
2023/03/10 03:25:13;;;;;;;24.15;15.80;;;2.20;99.90;;;;;;5064164;28;20559;-64
2023/03/10 03:27:40;;;;;;;22.35;15.82;;;0.80;99.90;;;;;;5058752;28;20080;-65
2023/03/10 03:30:09;;;;;;;23.33;15.93;;;1.00;99.90;;;;;;5044334;28;20403;-66
2023/03/10 03:32:35;;;;;;;22.13;15.32;;;1.40;99.90;;;;;;5044424;28;20170;-65
2023/03/10 03:35:01;;;;;;;21.70;15.50;;;1.00;99.90;;;;;;5043390;28;20068;-65
2023/03/10 03:37:27;;;;;;;24.00;16.75;;;1.10;99.90;;;;;;5043219;28;20040;-63
2023/03/10 03:39:53;;;;;;;22.30;15.13;;;0.40;99.90;;;;;;5044181;28;20510;-65
2023/03/10 03:42:18;;;;;;;23.50;15.55;;;1.20;99.90;;;;;;5043334;28;20052;-65
2023/03/10 03:44:44;;;;;;;21.60;14.38;;;0.40;99.90;;;;;;5027355;28;20483;-64
2023/03/10 03:47:09;;;;;;;26.08;17.75;;;1.60;99.90;;;;;;5054327;28;20475;-64
2023/03/10 03:49:38;;;;;;;26.30;17.17;;;2.80;99.90;;;;;;5062252;28;20032;-65
2023/03/10 03:52:05;;;;;;;26.80;18.75;;;0.70;99.90;;;;;;5063614;28;20039;-64
2023/03/10 03:54:32;;;;;;;27.98;19.15;;;0.90;99.90;;;;;;5062885;28;20048;-64
2023/03/10 03:56:57;;;;;;;27.25;18.38;;;1.50;99.90;;;;;;5045990;28;20049;-64
2023/03/10 03:59:23;;;;;;;27.40;19.08;;;1.50;99.90;;;;;;5063858;28;20037;-63
2023/03/10 04:01:49;;;;;;;28.00;17.60;;;0.30;99.90;;;;;;5063136;28;20128;-65
2023/03/10 04:04:15;;;;;;;30.90;20.50;;;2.20;99.90;;;;;;5063740;28;20044;-65
2023/03/10 04:06:40;;;;;;;29.63;21.00;;;1.40;99.90;;;;;;5064385;28;20505;-65
2023/03/10 04:09:06;;;;;;;33.22;21.98;;;0.30;99.90;;;;;;5064085;28;20036;-65
2023/03/10 04:11:32;;;;;;;32.08;22.13;;;0.30;99.90;;;;;;5063401;28;20124;-64
2023/03/10 04:13:58;;;;;;;35.58;23.00;;;1.40;99.90;;;;;;5064482;28;20041;-65
2023/03/10 04:16:23;;;;;;;33.42;21.90;;;1.50;99.90;;;;;;5064004;28;20128;-65
2023/03/10 04:18:49;;;;;;;34.47;22.27;;;1.30;99.90;;;;;;5062899;28;20048;-64
2023/03/10 04:21:16;;;;;;;30.90;20.38;;;1.00;99.90;;;;;;5063921;28;20033;-64
2023/03/10 04:23:42;;;;;;;37.60;23.90;;;0.80;99.90;;;;;;5066527;28;20053;-64
2023/03/10 04:26:09;;;;;;;36.20;22.15;;;1.30;99.90;;;;;;5067617;28;20056;-65
2023/03/10 04:28:36;;;;;;;35.00;22.73;;;0.50;99.90;;;;;;5067276;28;20044;-64
2023/03/10 04:31:01;;;;;;;34.28;22.95;;;0.90;99.90;;;;;;5067540;28;20036;-63
2023/03/10 04:33:27;;;;;;;33.92;21.85;;;1.40;99.90;;;;;;5067139;28;20475;-65
2023/03/10 04:35:53;;;;;;;36.80;23.50;;;0.30;99.90;;;;;;5066525;28;20047;-65
2023/03/10 04:38:19;;;;;;;37.70;24.02;;;1.40;99.90;;;;;;5067391;28;20051;-65
2023/03/10 04:40:44;;;;;;;36.50;23.13;;;1.20;99.90;;;;;;5067398;28;20032;-65
2023/03/10 04:43:10;;;;;;;38.08;24.08;;;0.50;99.90;;;;;;5067331;28;20061;-65
2023/03/10 04:45:36;;;;;;;37.78;23.40;;;0.60;99.90;;;;;;5060948;28;20466;-65
2023/03/10 04:48:02;;;;;;;38.70;23.67;;;1.40;99.90;;;;;;5051580;28;20045;-65
2023/03/10 04:50:28;;;;;;;40.17;25.55;;;0.90;99.90;;;;;;5046745;28;20102;-64
2023/03/10 04:52:54;;;;;;;38.80;24.55;;;0.60;99.90;;;;;;5046713;28;20072;-65
2023/03/10 04:55:19;;;;;;;37.92;24.10;;;1.20;99.90;;;;;;5047142;28;20512;-65
2023/03/10 04:57:45;;;;;;;43.45;27.13;;;0.80;99.90;;;;;;5046974;28;20045;-65
2023/03/10 05:00:11;;;;;;;42.10;26.70;;;3.40;99.90;;;;;;5029025;28;20132;-65
2023/03/10 05:02:38;;;;;;;47.33;28.90;;;0.80;99.90;;;;;;5046847;28;20679;-65
2023/03/10 05:05:05;;;;;;;46.53;28.23;;;1.60;99.90;;;;;;5046140;28;20669;-65
2023/03/10 05:07:31;;;;;;;50.47;31.48;;;2.10;99.90;;;;;;5046798;28;20049;-65
2023/03/10 05:09:57;;;;;;;47.67;27.83;;;0.80;99.90;;;;;;5028511;28;20128;-65
2023/03/10 05:12:23;;;;;;;52.00;30.40;;;0.80;99.90;;;;;;5046570;28;20076;-65
2023/03/10 05:14:48;;;;;;;53.00;31.52;;;1.40;99.90;;;;;;5046296;28;20045;-65
2023/03/10 05:17:14;;;;;;;57.45;32.60;;;0.90;99.90;;;;;;5046289;28;20041;-63
2023/03/10 05:19:40;;;;;;;57.22;32.92;;;1.40;99.90;;;;;;5045875;28;20044;-65
2023/03/10 05:22:06;;;;;;;57.10;32.45;;;1.80;99.90;;;;;;5046445;28;20053;-65
2023/03/10 05:24:32;;;;;;;55.78;32.38;;;1.40;99.90;;;;;;5046559;28;20041;-64
2023/03/10 05:27:01;;;;;;;61.22;34.60;;;0.60;99.90;;;;;;5046112;28;20052;-65
2023/03/10 05:29:27;;;;;;;58.45;33.58;;;3.00;99.90;;;;;;5046458;28;20091;-65
2023/03/10 05:31:52;;;;;;;56.75;31.73;;;2.60;99.90;;;;;;5046235;28;20087;-65
2023/03/10 05:34:18;;;;;;;56.58;32.28;;;1.30;99.90;;;;;;5045351;28;20040;-65
2023/03/10 05:36:44;;;;;;;55.45;32.25;;;2.00;99.90;;;;;;5046523;28;20045;-65
2023/03/10 05:39:10;;;;;;;49.60;28.70;;;2.00;99.90;;;;;;5046172;28;20041;-65
2023/03/10 05:41:36;;;;;;;50.17;29.95;;;1.30;99.90;;;;;;5046764;28;20048;-64
2023/03/10 05:44:02;;;;;;;51.67;30.10;;;0.80;99.90;;;;;;5046025;28;20048;-66
2023/03/10 05:46:28;;;;;;;48.67;30.63;;;1.20;99.90;;;;;;5039449;28;20415;-65
2023/03/10 05:48:55;;;;;;;48.80;28.42;;;0.20;99.90;;;;;;5045486;28;20124;-64
2023/03/10 05:51:20;;;;;;;44.08;25.40;;;1.10;99.90;;;;;;5027736;28;20049;-65
2023/03/10 05:53:47;;;;;;;45.78;27.83;;;0.10;99.90;;;;;;5011886;28;20064;-66
2023/03/10 05:56:16;;;;;;;46.28;27.88;;;0.70;99.90;;;;;;5045682;28;20053;-65
2023/03/10 05:58:43;;;;;;;46.67;26.77;;;1.20;99.90;;;;;;5027410;28;20110;-66
2023/03/10 06:01:08;;;;;;;45.10;26.25;;;0.30;99.90;;;;;;5046102;28;20407;-64
2023/03/10 06:03:35;;;;;;;44.30;25.75;;;0.50;99.90;;;;;;5027708;28;20049;-66
2023/03/10 06:06:01;;;;;;;41.92;25.40;;;0.90;99.90;;;;;;5046135;28;20053;-65
2023/03/10 06:08:27;;;;;;;42.10;24.73;;;0.10;99.90;;;;;;5045506;28;20518;-65
2023/03/10 06:10:53;;;;;;;37.78;23.85;;;0.70;99.90;;;;;;5027689;28;20623;-65
2023/03/10 06:13:19;;;;;;;36.70;21.98;;;0.10;99.90;;;;;;5046002;28;20052;-66
2023/03/10 06:15:49;;;;;;;40.95;24.50;;;0.00;99.90;;;;;;5044775;28;20071;-66
2023/03/10 06:18:16;;;;;;;41.38;23.83;;;0.00;99.90;;;;;;5044566;28;20045;-65
2023/03/10 06:20:41;;;;;;;38.47;23.88;;;1.70;99.90;;;;;;5045722;28;20420;-66
2023/03/10 06:23:07;;;;;;;40.60;23.83;;;1.10;99.90;;;;;;5045206;28;20098;-65
2023/03/10 06:25:33;;;;;;;35.60;21.50;;;1.30;99.90;;;;;;5027894;28;20045;-66
2023/03/10 06:28:00;;;;;;;35.15;21.23;;;0.80;99.90;;;;;;5045662;28;20099;-65
2023/03/10 06:30:25;;;;;;;36.78;22.35;;;1.00;99.90;;;;;;5045320;28;20045;-66
2023/03/10 06:32:51;;;;;;;37.15;22.35;;;0.00;99.90;;;;;;5044285;28;20122;-66
2023/03/10 06:35:17;;;;;;;38.00;21.48;;;1.10;99.90;;;;;;5044523;28;20084;-65
2023/03/10 06:37:43;;;;;;;33.90;21.92;;;0.90;99.90;;;;;;5045769;28;20088;-66
2023/03/10 06:40:11;;;;;;;34.35;20.98;;;0.20;99.90;;;;;;5044551;28;20313;-65
2023/03/10 06:42:38;;;;;;;34.85;21.05;;;1.10;99.90;;;;;;5045442;28;20116;-65
2023/03/10 06:45:05;;;;;;;32.33;19.70;;;0.00;99.90;;;;;;5047038;28;20048;-65
2023/03/10 06:47:30;;;;;;;32.70;19.55;;;1.10;99.90;;;;;;5056172;28;20186;-66
2023/03/10 06:49:57;;;;;;;33.47;21.10;;;0.70;99.90;;;;;;5062796;28;20120;-65
2023/03/10 06:52:23;;;;;;;33.35;19.70;;;0.70;99.90;;;;;;5046376;28;20052;-66
2023/03/10 06:54:48;;;;;;;32.05;19.60;;;0.20;99.90;;;;;;5064439;28;20037;-65
2023/03/10 06:57:14;;;;;;;30.38;19.42;;;0.00;99.90;;;;;;5064094;28;20044;-65
2023/03/10 06:59:40;;;;;;;33.22;21.58;;;1.10;99.90;;;;;;5064027;28;20555;-65
2023/03/10 07:02:06;;;;;;;37.22;21.33;;;1.10;99.90;;;;;;5064910;28;20044;-65
2023/03/10 07:04:31;;;;;;;32.47;19.23;;;0.70;99.90;;;;;;5063036;28;20040;-65
2023/03/10 07:06:57;;;;;;;34.78;20.15;;;1.90;99.90;;;;;;5063793;28;20502;-65
2023/03/10 07:09:23;;;;;;;36.20;21.02;;;1.00;99.90;;;;;;5063726;28;20047;-65
2023/03/10 07:11:48;;;;;;;34.08;21.27;;;0.70;99.90;;;;;;5064474;28;20089;-65
2023/03/10 07:14:14;;;;;;;36.35;21.88;;;0.60;99.90;;;;;;5063588;28;20109;-65
2023/03/10 07:16:40;;;;;;;36.55;22.05;;;1.10;99.90;;;;;;5045909;28;20373;-65
2023/03/10 07:19:06;;;;;;;34.05;20.63;;;0.00;99.90;;;;;;5063654;28;20051;-65
2023/03/10 07:21:31;;;;;;;35.53;22.20;;;1.00;99.90;;;;;;5063795;28;20060;-64
2023/03/10 07:23:57;;;;;;;31.95;20.05;;;0.10;99.90;;;;;;5063518;28;20048;-65
2023/03/10 07:26:23;;;;;;;31.33;19.38;;;0.40;99.90;;;;;;5064554;28;20084;-65
2023/03/10 07:28:49;;;;;;;33.85;20.70;;;0.90;99.90;;;;;;5045706;28;20087;-65
2023/03/10 07:31:15;;;;;;;36.40;21.80;;;0.60;99.90;;;;;;5063274;28;20072;-65
2023/03/10 07:33:41;;;;;;;34.05;19.38;;;0.50;99.90;;;;;;5063541;28;20043;-64
2023/03/10 07:36:09;;;;;;;31.80;19.77;;;0.30;99.90;;;;;;5063984;28;20040;-65
2023/03/10 07:38:35;;;;;;;33.80;21.20;;;0.20;99.90;;;;;;5046106;28;20654;-65
2023/03/10 07:41:08;;;;;;;32.78;19.50;;;0.50;99.90;;;;;;5063889;28;20106;-65
2023/03/10 07:43:34;;;;;;;33.88;19.52;;;0.80;99.90;;;;;;5063984;28;20521;-65
2023/03/10 07:46:06;;;;;;;33.92;20.40;;;1.70;99.90;;;;;;5056783;28;20044;-64
2023/03/10 07:48:33;;;;;;;35.67;21.63;;;1.90;99.90;;;;;;5042546;28;20045;-65
2023/03/10 07:50:59;;;;;;;32.25;18.33;;;0.80;99.90;;;;;;5043667;28;20599;-64
2023/03/10 07:53:27;;;;;;;36.83;20.58;;;0.80;99.90;;;;;;5043127;28;20032;-65
2023/03/10 07:55:53;;;;;;;29.70;20.05;;;1.20;99.90;;;;;;5025358;28;20049;-65
2023/03/10 07:58:19;;;;;;;33.45;21.05;;;1.50;99.90;;;;;;5047272;28;20051;-65
2023/03/10 08:00:45;;;;;;;32.33;19.83;;;0.80;99.90;;;;;;5047813;28;20063;-65
2023/03/10 08:03:11;;;;;;;31.35;18.48;;;0.40;99.90;;;;;;5045816;28;20561;-65
2023/03/10 08:05:40;;;;;;;30.45;18.45;;;1.90;99.90;;;;;;5047883;28;20037;-65
2023/03/10 08:08:06;;;;;;;32.50;19.92;;;1.20;99.90;;;;;;5047952;28;20033;-65
2023/03/10 08:10:32;;;;;;;35.65;22.52;;;0.20;99.90;;;;;;5046501;28;20056;-65
2023/03/10 08:12:58;;;;;;;37.78;22.20;;;2.30;99.90;;;;;;5051506;28;20094;-65
2023/03/10 08:15:25;;;;;;;31.63;19.67;;;0.70;99.90;;;;;;5062275;28;20119;-64
2023/03/10 08:17:51;;;;;;;31.60;20.10;;;0.30;99.90;;;;;;5066590;28;20084;-65
2023/03/10 08:20:17;;;;;;;33.53;20.95;;;1.60;99.90;;;;;;5038359;28;20446;-65
2023/03/10 08:22:43;;;;;;;33.13;21.67;;;0.80;99.90;;;;;;5056127;28;20049;-64
2023/03/10 08:25:11;;;;;;;34.22;21.15;;;1.00;99.90;;;;;;5038124;28;20051;-64
2023/03/10 08:27:37;;;;;;;31.92;19.48;;;0.30;99.90;;;;;;5054865;28;20099;-65
2023/03/10 08:30:03;;;;;;;34.20;22.50;;;1.20;99.90;;;;;;5056563;28;20515;-65
2023/03/10 08:32:29;;;;;;;35.17;22.17;;;0.20;99.90;;;;;;5039189;28;20529;-65
2023/03/10 08:34:55;;;;;;;36.17;23.00;;;2.20;99.90;;;;;;5050835;28;20044;-65
2023/03/10 08:37:21;;;;;;;38.15;22.75;;;0.60;99.90;;;;;;5027734;28;20554;-66
2023/03/10 08:39:46;;;;;;;38.63;22.90;;;0.20;99.90;;;;;;5046133;28;20543;-64
2023/03/10 08:42:12;;;;;;;40.33;23.40;;;1.00;99.90;;;;;;5046411;28;20568;-65
2023/03/10 08:44:39;;;;;;;38.03;24.60;;;1.90;99.90;;;;;;5049375;28;20059;-64
2023/03/10 08:47:06;;;;;;;38.03;24.75;;;1.40;99.90;;;;;;5059487;28;20045;-64
2023/03/10 08:49:32;;;;;;;36.17;23.55;;;1.50;99.90;;;;;;5055438;28;20057;-65
2023/03/10 08:51:59;;;;;;;36.45;22.33;;;0.40;99.90;;;;;;5054446;28;20041;-64
2023/03/10 08:54:24;;;;;;;37.58;23.55;;;1.40;99.90;;;;;;5028797;28;20072;-65
2023/03/10 08:56:50;;;;;;;41.10;25.90;;;1.70;99.90;;;;;;5046575;28;20554;-64
2023/03/10 08:59:17;;;;;;;35.83;23.70;;;1.50;99.90;;;;;;5046667;28;20040;-65
2023/03/10 09:01:42;;;;;;;36.22;23.55;;;1.60;99.90;;;;;;5028805;28;20121;-65
2023/03/10 09:04:09;;;;;;;39.92;25.05;;;2.50;99.90;;;;;;5037255;28;20122;-64
2023/03/10 09:06:36;;;;;;;38.13;25.10;;;1.60;99.90;;;;;;5052961;28;20748;-64
2023/03/10 09:09:03;;;;;;;37.72;24.75;;;0.50;99.90;;;;;;5049687;28;20049;-64
2023/03/10 09:11:31;;;;;;;37.72;23.58;;;1.50;99.90;;;;;;5046772;28;20114;-65
2023/03/10 09:13:58;;;;;;;39.22;26.20;;;1.60;99.90;;;;;;5028772;28;20070;-64
2023/03/10 09:16:25;;;;;;;40.78;26.13;;;0.90;99.90;;;;;;5046576;28;20040;-64
2023/03/10 09:18:50;;;;;;;39.13;25.33;;;0.70;99.90;;;;;;5045303;28;20906;-64
2023/03/10 09:21:18;;;;;;;34.00;22.77;;;1.40;99.90;;;;;;5046804;28;20131;-65
2023/03/10 09:23:45;;;;;;;37.03;24.15;;;1.10;99.90;;;;;;5046107;28;20049;-64
2023/03/10 09:26:11;;;;;;;38.15;24.85;;;1.30;99.90;;;;;;5028030;28;20151;-63
2023/03/10 09:28:37;;;;;;;35.33;24.98;;;1.60;99.90;;;;;;5046415;28;20121;-65
2023/03/10 09:31:04;;;;;;;32.60;21.33;;;2.60;99.90;;;;;;5046059;28;20930;-64
2023/03/10 09:33:31;;;;;;;37.45;25.33;;;1.50;99.90;;;;;;5045081;28;20132;-65
2023/03/10 09:35:57;;;;;;;36.33;24.58;;;1.40;99.90;;;;;;5045397;28;20077;-64
2023/03/10 09:38:23;;;;;;;39.97;25.55;;;1.20;99.90;;;;;;5045787;28;20041;-64
2023/03/10 09:41:02;;;;;;;37.03;24.70;;;0.60;99.90;;;;;;5048365;28;20092;-63
2023/03/10 09:43:33;;;;;;;35.15;23.83;;;1.50;99.90;;;;;;5048798;28;20431;-64
2023/03/10 09:46:06;;;;;;;37.00;24.20;;;0.50;99.90;;;;;;5057721;28;20040;-65
2023/03/10 09:49:09;;;;;;;37.22;24.27;;;1.60;99.90;;;;;;5045013;28;20043;-64
2023/03/10 09:51:40;;;;;;;35.85;24.13;;;1.60;99.90;;;;;;5027868;28;20057;-69
2023/03/10 09:54:06;;;;;;;32.38;19.50;;;1.30;99.90;;;;;;5045326;28;20041;-65
2023/03/10 09:56:34;;;;;;;35.72;23.30;;;1.60;99.90;;;;;;5045250;28;20045;-68
2023/03/10 09:59:10;;;;;;;35.78;24.27;;;0.70;99.90;;;;;;5044157;28;20056;-65
2023/03/10 10:01:38;;;;;;;33.83;23.67;;;2.00;99.90;;;;;;5044432;28;20049;-66
2023/03/10 10:04:26;;;;;;;31.75;20.92;;;2.50;99.90;;;;;;5026526;28;20048;-66
2023/03/10 10:06:54;;;;;;;35.95;24.35;;;1.60;99.90;;;;;;5045207;28;20037;-64
2023/03/10 10:09:23;;;;;;;32.97;20.83;;;1.10;99.90;;;;;;5045308;28;20048;-68
2023/03/10 10:11:48;;;;;;;33.63;21.98;;;1.40;99.90;;;;;;5045003;28;20048;-67
2023/03/10 10:14:16;;;;;;;36.15;23.20;;;1.50;99.90;;;;;;5045673;28;20476;-68
2023/03/10 10:17:01;;;;;;;35.15;22.52;;;1.60;99.90;;;;;;5044678;28;20094;-65
2023/03/10 10:19:27;;;;;;;33.10;22.67;;;0.50;99.90;;;;;;5043776;28;20112;-63
2023/03/10 10:22:15;;;;;;;35.67;22.48;;;1.40;99.90;;;;;;5044963;28;20455;-67
2023/03/10 10:24:50;;;;;;;35.28;23.17;;;0.80;99.90;;;;;;5044792;28;20051;-67
2023/03/10 10:27:16;;;;;;;36.13;23.42;;;1.30;99.90;;;;;;5045707;28;20041;-67
2023/03/10 10:29:45;;;;;;;35.22;24.63;;;1.10;99.90;;;;;;5045748;28;20094;-68
2023/03/10 10:32:14;;;;;;;34.50;21.83;;;1.90;99.90;;;;;;5027696;28;20049;-64
2023/03/10 10:34:45;;;;;;;32.72;21.48;;;1.20;99.90;;;;;;5045255;28;20033;-65
2023/03/10 10:37:25;;;;;;;34.83;23.15;;;1.60;99.90;;;;;;5044693;28;20100;-63
2023/03/10 10:39:52;;;;;;;33.33;22.77;;;1.40;99.90;;;;;;5027177;28;20060;-67
2023/03/10 10:42:30;;;;;;;32.97;21.40;;;1.60;99.90;;;;;;5142115;27;1259027;-65
2023/03/10 10:45:22;;;;;;;31.17;17.98;;;1.50;99.90;;;;;;5158894;27;20050;-66
2023/03/10 10:47:51;;;;;;;32.80;20.60;;;1.60;99.90;;;;;;5142601;27;20054;-65
2023/03/10 10:50:21;;;;;;;33.45;21.95;;;1.50;99.90;;;;;;5143836;27;20393;-67
2023/03/10 10:52:51;;;;;;;33.25;21.80;;;1.60;99.90;;;;;;5125049;27;20096;-68
2023/03/10 10:55:27;;;;;;;33.97;22.90;;;1.60;99.90;;;;;;5142902;27;20086;-66
2023/03/10 10:57:58;;;;;;;36.17;23.23;;;1.60;99.90;;;;;;5143178;27;20035;-68
2023/03/10 11:00:33;;;;;;;33.15;21.48;;;1.20;99.90;;;;;;5142806;27;20122;-67
2023/03/10 11:02:59;;;;;;;30.80;20.85;;;1.50;99.90;;;;;;5123504;27;20051;-65
2023/03/10 11:05:32;;;;;;;33.53;20.85;;;0.60;99.90;;;;;;5143322;27;20088;-66
2023/03/10 11:08:17;;;;;;;32.20;21.25;;;0.80;99.90;;;;;;5142322;27;20043;-66
2023/03/10 11:10:48;;;;;;;33.80;21.83;;;0.90;99.90;;;;;;5143173;27;20079;-68
2023/03/10 11:13:23;;;;;;;37.25;24.05;;;1.40;99.90;;;;;;5142500;27;20043;-63
2023/03/10 11:16:03;;;;;;;36.03;22.70;;;1.70;99.90;;;;;;5143350;27;20212;-67
2023/03/10 11:18:48;;;;;;;32.08;22.00;;;1.50;99.90;;;;;;5141781;27;20381;-65
2023/03/10 11:21:22;;;;;;;31.58;20.63;;;1.60;99.90;;;;;;5142990;27;20065;-64
2023/03/10 11:24:12;;;;;;;32.67;21.25;;;1.50;99.90;;;;;;5143381;27;20039;-66
2023/03/10 11:26:58;;;;;;;33.55;22.20;;;1.20;99.90;;;;;;5142401;27;20047;-65
2023/03/10 11:29:42;;;;;;;30.50;21.10;;;2.60;99.90;;;;;;5123434;27;20046;-65
2023/03/10 11:32:33;;;;;;;33.45;22.48;;;1.40;99.90;;;;;;5142388;27;20043;-68
2023/03/10 11:35:13;;;;;;;31.95;21.45;;;0.60;99.90;;;;;;5141337;27;20057;-62
2023/03/10 11:38:14;;;;;;;32.65;21.40;;;0.60;99.90;;;;;;5142426;27;20037;-62
2023/03/10 11:40:50;;;;;;;32.88;21.63;;;1.90;99.90;;;;;;5127096;27;20089;-67
2023/03/10 11:43:38;;;;;;;30.88;19.73;;;1.50;99.90;;;;;;5143098;27;20038;-68
2023/03/10 11:46:29;;;;;;;31.23;21.48;;;1.60;99.90;;;;;;5152872;27;20686;-66
2023/03/10 11:49:11;;;;;;;31.90;21.65;;;1.20;99.90;;;;;;5140650;27;20072;-65
2023/03/10 11:51:48;;;;;;;34.78;22.40;;;0.70;99.90;;;;;;5140181;27;20050;-67
2023/03/10 11:54:24;;;;;;;32.55;21.02;;;1.80;99.90;;;;;;5127752;27;20058;-66
2023/03/10 11:56:51;;;;;;;35.03;22.45;;;0.70;99.90;;;;;;5127592;27;20047;-62
2023/03/10 11:59:29;;;;;;;30.50;20.80;;;1.00;99.90;;;;;;5109481;27;20049;-64
2023/03/10 12:02:18;;;;;;;33.30;23.60;;;1.70;99.90;;;;;;5127515;27;20099;-68
2023/03/10 12:04:56;;;;;;;33.78;22.83;;;1.80;99.90;;;;;;5127967;27;20061;-65
2023/03/10 12:07:33;;;;;;;31.33;21.08;;;0.80;99.90;;;;;;5128174;27;20035;-65
2023/03/10 12:10:03;;;;;;;30.60;20.42;;;1.10;99.90;;;;;;5128597;27;20095;-68
2023/03/10 12:12:33;;;;;;;31.50;21.40;;;1.50;99.90;;;;;;5128118;27;20047;-67
2023/03/10 12:15:04;;;;;;;30.90;21.23;;;0.70;99.90;;;;;;5127875;27;20462;-67
2023/03/10 12:17:30;;;;;;;34.38;21.40;;;1.60;99.90;;;;;;5127499;27;20125;-65
2023/03/10 12:20:14;;;;;;;29.02;20.25;;;0.70;99.90;;;;;;5128512;27;20106;-68
2023/03/10 12:22:50;;;;;;;31.23;21.48;;;0.90;99.90;;;;;;5127880;27;20112;-66
2023/03/10 12:25:28;;;;;;;32.90;21.60;;;1.70;99.90;;;;;;5128079;27;20118;-67
2023/03/10 12:28:15;;;;;;;30.60;21.08;;;1.00;99.90;;;;;;5127579;27;20054;-63
2023/03/10 12:30:45;;;;;;;30.83;20.77;;;1.00;99.90;;;;;;5127924;27;20091;-66
2023/03/10 12:33:29;;;;;;;29.67;20.23;;;1.20;99.90;;;;;;5126544;27;20579;-65
2023/03/10 12:36:13;;;;;;;33.25;21.17;;;1.70;99.90;;;;;;5127768;27;20051;-65
2023/03/10 12:38:44;;;;;;;30.00;20.65;;;0.70;99.90;;;;;;5127889;27;20415;-67
2023/03/10 12:41:10;;;;;;;30.77;21.08;;;1.20;99.90;;;;;;5127254;27;20508;-66
2023/03/10 12:43:53;;;;;;;30.63;20.70;;;1.80;99.90;;;;;;5126886;27;20118;-67
2023/03/10 12:46:25;;;;;;;32.08;20.42;;;1.70;99.90;;;;;;5138947;27;20046;-66
2023/03/10 12:49:06;;;;;;;30.08;20.20;;;0.60;99.90;;;;;;5126264;27;20070;-67